Time;durP1;ratioP1;P1;durP2;ratioP2;P2;SDS_P1;SDS_P2;PMS_P1;PMS_P2;Temp;Humidity;BMP_temperature;BMP_pressure;BME280_temperature;BME280_humidity;BME280_pressure;Samples;Min_cycle;Max_cycle;Signal;HPM_P1;HPM_P2
2022/09/01 00:00:00;;;;;;;8.57;7.18;;;22.40;99.90;;;;;;6283912;27;83031;-64
2022/09/01 00:03:02;;;;;;;8.23;7.10;;;22.40;99.90;;;;;;6285081;27;84033;-64
2022/09/01 00:06:09;;;;;;;7.63;6.82;;;22.40;99.90;;;;;;6284350;27;82937;-64
2022/09/01 00:09:13;;;;;;;7.88;7.15;;;22.40;99.90;;;;;;6285365;27;84154;-64
2022/09/01 00:12:15;;;;;;;7.88;6.88;;;22.40;99.90;;;;;;6283215;27;84369;-64
2022/09/01 00:15:18;;;;;;;8.05;7.22;;;22.40;99.90;;;;;;6284046;27;84366;-64
2022/09/01 00:18:20;;;;;;;8.93;8.02;;;22.40;99.90;;;;;;6284416;27;83245;-64
2022/09/01 00:21:24;;;;;;;7.43;6.72;;;22.40;99.90;;;;;;6284961;27;82992;-64
2022/09/01 00:24:28;;;;;;;7.07;6.40;;;22.40;99.90;;;;;;6273572;27;82936;-64
2022/09/01 00:27:31;;;;;;;7.50;6.80;;;22.40;99.90;;;;;;6282738;27;84861;-64
2022/09/01 00:30:35;;;;;;;7.53;6.80;;;22.30;99.90;;;;;;6283513;27;83909;-64
2022/09/01 00:33:38;;;;;;;8.57;7.28;;;22.40;99.90;;;;;;6284329;27;84134;-64
2022/09/01 00:36:40;;;;;;;8.07;6.88;;;22.40;99.90;;;;;;6284146;27;84110;-64
2022/09/01 00:39:42;;;;;;;7.60;6.90;;;22.40;99.90;;;;;;6277664;27;84617;-64
2022/09/01 00:42:47;;;;;;;8.05;7.30;;;22.30;99.90;;;;;;6283872;27;84424;-64
2022/09/01 00:45:51;;;;;;;8.38;7.50;;;22.30;99.90;;;;;;6284598;27;84155;-64
2022/09/01 00:48:55;;;;;;;8.48;7.57;;;22.30;99.90;;;;;;6282657;27;83594;-64
2022/09/01 00:52:04;;;;;;;9.02;7.43;;;22.30;99.90;;;;;;6271996;27;81995;-64
2022/09/01 00:55:10;;;;;;;8.45;7.55;;;22.30;99.90;;;;;;6284438;27;84030;-64
2022/09/01 00:58:12;;;;;;;8.32;7.53;;;22.30;99.90;;;;;;6282794;27;85319;-64
2022/09/01 01:01:16;;;;;;;8.40;7.50;;;22.30;99.90;;;;;;6283553;27;84350;-64
2022/09/01 01:04:18;;;;;;;8.10;7.30;;;22.30;99.90;;;;;;6285266;27;84151;-64
2022/09/01 01:07:22;;;;;;;8.23;7.35;;;22.30;99.90;;;;;;6283631;27;84051;-64
2022/09/01 01:10:25;;;;;;;7.22;6.55;;;22.30;99.90;;;;;;6284150;27;82910;-64
2022/09/01 01:13:31;;;;;;;8.55;7.70;;;22.30;99.90;;;;;;6284206;27;84016;-64
2022/09/01 01:16:34;;;;;;;8.30;7.50;;;22.30;99.90;;;;;;6282337;27;84030;-64
2022/09/01 01:23:10;;;;;;;7.47;6.75;;;22.30;99.90;;;;;;6278777;27;82640;-64
2022/09/01 01:26:14;;;;;;;7.90;7.20;;;22.30;99.90;;;;;;6280390;27;84104;-64
2022/09/01 01:29:17;;;;;;;8.30;7.50;;;22.30;99.90;;;;;;6275298;27;84935;-64
2022/09/01 01:32:19;;;;;;;7.78;6.97;;;22.30;99.90;;;;;;6282292;27;84033;-64
2022/09/01 01:35:24;;;;;;;8.43;7.63;;;22.30;99.90;;;;;;6281095;27;83524;-64
2022/09/01 01:38:27;;;;;;;9.07;8.18;;;22.30;99.90;;;;;;6283499;27;84053;-64
2022/09/01 01:41:32;;;;;;;10.45;8.40;;;22.30;99.90;;;;;;6282422;27;82944;-64
2022/09/01 01:44:36;;;;;;;8.38;7.57;;;22.30;99.90;;;;;;6279894;27;84009;-64
2022/09/01 01:47:38;;;;;;;10.07;8.40;;;22.30;99.90;;;;;;6282047;27;82891;-64
2022/09/01 01:50:40;;;;;;;7.57;6.88;;;22.30;99.90;;;;;;6284303;27;83316;-64
2022/09/01 01:53:43;;;;;;;7.88;7.00;;;22.30;99.90;;;;;;6282891;27;82838;-64
2022/09/01 01:56:46;;;;;;;8.27;7.47;;;22.30;99.90;;;;;;6284161;27;84191;-64
2022/09/01 01:59:48;;;;;;;8.85;7.95;;;22.30;99.90;;;;;;6282558;27;85331;-64
2022/09/01 02:02:53;;;;;;;8.27;7.47;;;22.20;99.90;;;;;;6283393;27;83851;-64
2022/09/01 02:05:55;;;;;;;8.35;7.50;;;22.30;99.90;;;;;;6281992;27;84080;-64
2022/09/01 02:09:00;;;;;;;9.05;8.15;;;22.30;99.90;;;;;;6281999;27;84280;-64
2022/09/01 02:12:04;;;;;;;7.95;7.25;;;22.30;99.90;;;;;;6283636;27;82922;-64
2022/09/01 02:15:07;;;;;;;7.47;6.78;;;22.30;99.90;;;;;;6283305;27;84128;-64
2022/09/01 02:18:09;;;;;;;8.73;7.93;;;22.30;99.90;;;;;;6282519;27;84114;-64
2022/09/01 02:21:14;;;;;;;8.75;7.82;;;22.20;99.90;;;;;;6282626;27;83320;-64
2022/09/01 02:24:16;;;;;;;8.88;7.97;;;22.30;99.90;;;;;;6282604;27;84028;-64
2022/09/01 02:27:24;;;;;;;8.07;7.30;;;22.30;99.90;;;;;;6282841;27;84055;-64
2022/09/01 02:30:27;;;;;;;8.10;7.30;;;22.30;99.90;;;;;;6282647;27;85344;-64
2022/09/01 02:33:29;;;;;;;8.20;7.40;;;22.30;99.90;;;;;;6274697;27;84011;-64
2022/09/01 02:36:33;;;;;;;8.20;7.40;;;22.30;99.90;;;;;;6282920;27;84023;-64
2022/09/01 02:39:35;;;;;;;8.52;7.70;;;22.30;99.90;;;;;;6285095;27;83963;-64
2022/09/01 02:42:42;;;;;;;8.45;7.65;;;22.30;99.90;;;;;;6281234;27;84426;-64
2022/09/01 02:45:45;;;;;;;8.48;7.60;;;22.30;99.90;;;;;;6287168;27;84088;-64
2022/09/01 02:48:50;;;;;;;7.95;7.20;;;22.30;99.90;;;;;;6287165;27;84706;-64
2022/09/01 02:52:01;;;;;;;8.73;7.85;;;22.20;99.90;;;;;;6288440;27;83302;-64
2022/09/01 02:55:03;;;;;;;8.45;7.65;;;22.20;99.90;;;;;;6286113;27;84083;-64
2022/09/01 02:58:12;;;;;;;8.18;7.47;;;22.20;99.90;;;;;;6282506;27;83833;-64
2022/09/01 03:01:21;;;;;;;8.90;8.10;;;22.20;99.90;;;;;;6282327;27;85220;-64
2022/09/01 03:04:25;;;;;;;9.80;8.80;;;22.20;99.90;;;;;;6284767;27;84371;-64
2022/09/01 03:07:29;;;;;;;10.27;9.27;;;22.20;99.90;;;;;;6281135;27;84308;-64
2022/09/01 03:10:35;;;;;;;11.05;9.93;;;22.20;99.90;;;;;;6285424;27;83835;-64
2022/09/01 03:13:40;;;;;;;10.93;9.82;;;22.20;99.90;;;;;;6285309;27;85070;-64
2022/09/01 03:16:42;;;;;;;11.85;10.18;;;22.20;99.90;;;;;;6285189;27;84052;-64
2022/09/01 03:19:45;;;;;;;10.57;9.48;;;22.20;99.90;;;;;;6285471;27;84219;-64
2022/09/01 03:22:49;;;;;;;11.02;9.82;;;22.10;99.90;;;;;;6282750;27;83408;-64
2022/09/01 03:25:52;;;;;;;12.57;10.38;;;22.20;99.90;;;;;;6285939;27;84308;-64
2022/09/01 03:28:55;;;;;;;12.63;11.30;;;22.20;99.90;;;;;;6284401;27;83255;-64
2022/09/01 03:31:57;;;;;;;13.38;11.35;;;22.10;99.90;;;;;;6283648;27;85022;-64
2022/09/01 03:34:59;;;;;;;13.02;11.35;;;22.10;99.90;;;;;;6284755;27;84134;-64
2022/09/01 03:38:02;;;;;;;14.55;12.13;;;22.10;99.90;;;;;;6284481;27;83054;-64
2022/09/01 03:41:06;;;;;;;12.55;10.80;;;22.10;99.90;;;;;;6284118;27;85277;-64
2022/09/01 03:44:10;;;;;;;12.65;11.20;;;22.10;99.90;;;;;;6284686;27;83912;-63
2022/09/01 03:47:14;;;;;;;12.93;11.40;;;22.10;99.90;;;;;;6284216;27;84030;-64
2022/09/01 03:50:20;;;;;;;12.32;10.88;;;22.10;99.90;;;;;;6281788;27;84107;-64
2022/09/01 03:53:26;;;;;;;15.52;12.20;;;22.10;99.90;;;;;;6281464;27;83184;-64
2022/09/01 03:56:29;;;;;;;14.02;12.07;;;22.10;99.90;;;;;;6283127;27;84067;-64
2022/09/01 03:59:33;;;;;;;15.27;12.70;;;22.10;99.90;;;;;;6283581;27;83968;-64
2022/09/01 04:02:34;;;;;;;12.32;11.02;;;22.10;99.90;;;;;;6285060;27;83840;-64
2022/09/01 04:05:38;;;;;;;13.60;11.80;;;22.10;99.90;;;;;;6284048;27;84061;-64
2022/09/01 04:08:40;;;;;;;13.40;11.88;;;22.10;99.90;;;;;;6282551;27;84322;-64
2022/09/01 04:11:44;;;;;;;14.00;11.70;;;22.10;99.90;;;;;;6282779;27;84175;-64
2022/09/01 04:14:48;;;;;;;14.35;11.30;;;22.10;99.90;;;;;;6273618;27;84375;-64
2022/09/01 04:18:08;;;;;;;12.93;11.23;;;22.10;99.90;;;;;;6282865;27;84049;-64
2022/09/01 04:21:11;;;;;;;13.57;11.30;;;22.10;99.90;;;;;;6282227;27;85871;-64
2022/09/01 04:24:14;;;;;;;13.48;11.45;;;22.10;99.90;;;;;;6283062;27;83207;-64
2022/09/01 04:27:17;;;;;;;15.13;12.57;;;22.10;99.90;;;;;;6283962;27;83996;-64
2022/09/01 04:30:25;;;;;;;13.90;11.52;;;22.10;99.90;;;;;;6282480;27;83966;-63
2022/09/01 04:33:36;;;;;;;13.80;11.80;;;22.10;99.90;;;;;;6282931;27;84951;-64
2022/09/01 04:36:40;;;;;;;12.15;10.90;;;22.10;99.90;;;;;;6282672;27;82838;-64
2022/09/01 04:39:47;;;;;;;12.55;11.20;;;22.10;99.90;;;;;;6281657;27;84011;-64
2022/09/01 04:42:49;;;;;;;12.85;11.55;;;22.10;99.90;;;;;;6281502;27;85390;-64
2022/09/01 04:45:55;;;;;;;14.95;11.70;;;22.10;99.90;;;;;;6282357;27;84435;-64
2022/09/01 04:48:58;;;;;;;14.10;11.77;;;22.10;99.90;;;;;;6282486;27;83909;-64
2022/09/01 04:52:00;;;;;;;14.88;11.93;;;22.10;99.90;;;;;;6282645;27;83964;-64
2022/09/01 04:55:02;;;;;;;14.75;11.95;;;22.10;99.90;;;;;;6282760;27;83281;-64
2022/09/01 04:58:04;;;;;;;13.65;11.75;;;22.00;99.90;;;;;;6282581;27;84298;-64
2022/09/01 05:01:16;;;;;;;13.13;11.75;;;22.00;99.90;;;;;;6283041;27;84082;-64
2022/09/01 05:04:21;;;;;;;14.52;12.02;;;22.10;99.90;;;;;;6275590;27;85022;-64
2022/09/01 05:07:23;;;;;;;13.93;11.82;;;22.10;99.90;;;;;;6281802;27;84060;-64
2022/09/01 05:10:28;;;;;;;13.75;12.30;;;22.00;99.90;;;;;;6280945;27;84826;-64
2022/09/01 05:13:31;;;;;;;15.23;12.57;;;22.00;99.90;;;;;;6282313;27;84592;-64
2022/09/01 05:16:36;;;;;;;14.20;12.00;;;22.00;99.90;;;;;;6279796;27;84340;-64
2022/09/01 05:19:40;;;;;;;14.10;12.25;;;22.10;99.90;;;;;;6281906;27;83360;-64
2022/09/01 05:22:42;;;;;;;13.57;12.13;;;22.00;99.90;;;;;;6282766;27;84026;-64
2022/09/01 05:25:45;;;;;;;13.40;12.00;;;22.00;99.90;;;;;;6281611;27;83264;-64
2022/09/01 05:28:49;;;;;;;14.02;12.00;;;22.00;99.90;;;;;;6281821;27;84446;-63
2022/09/01 05:31:53;;;;;;;14.30;12.50;;;22.00;99.90;;;;;;6280413;27;82807;-64
2022/09/01 05:34:55;;;;;;;13.95;12.30;;;22.00;99.90;;;;;;6271756;27;85208;-64
2022/09/01 05:37:58;;;;;;;13.35;11.88;;;22.00;99.90;;;;;;6280348;27;84269;-64
2022/09/01 05:41:03;;;;;;;14.10;12.60;;;22.00;99.90;;;;;;6274489;27;84214;-64
2022/09/01 05:44:06;;;;;;;14.00;12.50;;;22.00;99.90;;;;;;6273145;27;84146;-64
2022/09/01 05:47:11;;;;;;;13.52;12.13;;;22.00;99.90;;;;;;6274659;27;84088;-65
2022/09/01 05:50:15;;;;;;;13.63;12.23;;;22.00;99.90;;;;;;6281413;27;84409;-65
2022/09/01 05:53:17;;;;;;;14.77;12.20;;;22.00;99.90;;;;;;6280429;27;83943;-65
2022/09/01 05:56:19;;;;;;;14.02;11.98;;;22.00;99.90;;;;;;6281109;27;82781;-65
2022/09/01 05:59:22;;;;;;;14.13;11.90;;;22.00;99.90;;;;;;6279677;27;83361;-65
2022/09/01 06:02:26;;;;;;;13.30;11.77;;;22.00;99.90;;;;;;6281485;27;83198;-65
2022/09/01 06:05:28;;;;;;;13.48;12.07;;;22.00;99.90;;;;;;6271491;27;84944;-65
2022/09/01 06:08:30;;;;;;;13.50;11.70;;;22.00;99.90;;;;;;6281817;27;84242;-65
2022/09/01 06:11:32;;;;;;;12.57;10.98;;;22.00;99.90;;;;;;6282689;27;84095;-64
2022/09/01 06:14:34;;;;;;;13.02;11.32;;;22.00;99.90;;;;;;6285171;27;82853;-65
2022/09/01 06:17:38;;;;;;;13.38;11.60;;;22.00;99.90;;;;;;6286459;27;84496;-64
2022/09/01 06:20:42;;;;;;;12.88;11.57;;;22.10;99.90;;;;;;6275948;27;83828;-64
2022/09/01 06:23:45;;;;;;;12.75;11.02;;;22.10;99.90;;;;;;6282361;27;84026;-64
2022/09/01 06:26:47;;;;;;;22.88;13.57;;;22.10;99.90;;;;;;6278397;27;83358;-64
2022/09/01 06:29:53;;;;;;;28.75;15.50;;;22.10;99.90;;;;;;6284521;27;83047;-64
2022/09/01 06:32:57;;;;;;;31.00;15.73;;;22.10;99.90;;;;;;6284767;27;83209;-65
2022/09/01 06:36:02;;;;;;;26.25;14.57;;;22.10;99.90;;;;;;6285569;27;85356;-64
2022/09/01 06:39:04;;;;;;;36.60;16.48;;;22.10;99.90;;;;;;6284742;27;85047;-65
2022/09/01 06:42:08;;;;;;;35.28;15.80;;;22.10;99.90;;;;;;6284836;27;84013;-65
2022/09/01 06:45:11;;;;;;;30.02;15.25;;;22.20;99.90;;;;;;6284941;27;84052;-64
2022/09/01 06:48:18;;;;;;;24.05;12.85;;;22.10;99.90;;;;;;6285212;27;84901;-64
2022/09/01 06:51:23;;;;;;;20.60;12.93;;;22.20;99.90;;;;;;6284790;27;83897;-64
2022/09/01 06:54:25;;;;;;;21.73;12.55;;;22.10;99.90;;;;;;6284160;27;83771;-64
2022/09/01 06:57:28;;;;;;;20.40;11.95;;;22.10;99.90;;;;;;6284606;27;82661;-64
2022/09/01 07:00:30;;;;;;;30.45;14.32;;;22.20;99.90;;;;;;6284195;27;84199;-63
2022/09/01 07:03:33;;;;;;;44.03;17.08;;;22.10;99.90;;;;;;6284461;27;83974;-63
2022/09/01 07:06:36;;;;;;;31.83;14.70;;;22.20;99.90;;;;;;6284910;27;84994;-63
2022/09/01 07:09:38;;;;;;;47.58;19.33;;;22.20;99.90;;;;;;6283226;27;84074;-64
2022/09/01 07:12:45;;;;;;;44.92;18.25;;;22.20;99.90;;;;;;6284387;27;84044;-64
2022/09/01 07:15:48;;;;;;;32.25;15.23;;;22.20;99.90;;;;;;6285477;27;84092;-63
2022/09/01 07:18:53;;;;;;;26.42;13.55;;;22.20;99.90;;;;;;6283639;27;83747;-63
2022/09/01 07:21:55;;;;;;;26.52;13.13;;;22.20;99.90;;;;;;6282142;27;84237;-63
2022/09/01 07:24:58;;;;;;;21.13;11.90;;;22.30;99.90;;;;;;6284676;27;84229;-64
2022/09/01 07:28:00;;;;;;;18.05;10.43;;;22.30;99.90;;;;;;6285216;27;83357;-63
2022/09/01 07:31:04;;;;;;;14.82;9.65;;;22.20;99.90;;;;;;6272371;27;84042;-63
2022/09/01 07:34:12;;;;;;;15.63;9.98;;;22.20;99.90;;;;;;6276572;27;84155;-63
2022/09/01 07:37:14;;;;;;;16.42;9.38;;;22.30;99.90;;;;;;6283728;27;84855;-63
2022/09/01 07:40:21;;;;;;;15.65;9.30;;;22.20;99.90;;;;;;6277432;27;84061;-64
2022/09/01 07:43:26;;;;;;;15.73;9.18;;;22.40;99.90;;;;;;6284850;27;83899;-63
2022/09/01 07:46:30;;;;;;;14.27;8.93;;;22.40;99.90;;;;;;6285059;27;82883;-63
2022/09/01 07:49:36;;;;;;;12.45;8.05;;;22.50;99.90;;;;;;6283010;27;84169;-64
2022/09/01 07:52:41;;;;;;;15.23;8.50;;;22.60;99.90;;;;;;6283667;27;84269;-63
2022/09/01 07:55:44;;;;;;;12.82;7.57;;;22.60;99.90;;;;;;6284523;27;83805;-63
2022/09/01 07:58:47;;;;;;;9.93;6.57;;;22.70;99.90;;;;;;6286872;27;83250;-64
2022/09/01 08:01:49;;;;;;;9.65;6.63;;;22.70;99.90;;;;;;6283187;27;84998;-64
2022/09/01 08:04:52;;;;;;;9.70;6.00;;;22.70;99.90;;;;;;6285368;27;83929;-64
2022/09/01 08:07:55;;;;;;;7.20;5.65;;;22.60;99.90;;;;;;6283854;27;84005;-64
2022/09/01 08:10:57;;;;;;;8.68;6.07;;;22.70;99.90;;;;;;6285396;27;82966;-64
2022/09/01 08:14:01;;;;;;;8.77;5.72;;;22.70;99.90;;;;;;6285106;27;84067;-64
2022/09/01 08:17:03;;;;;;;6.72;5.28;;;22.60;99.90;;;;;;6283903;27;82981;-64
2022/09/01 08:20:08;;;;;;;9.02;5.60;;;22.60;99.90;;;;;;6284029;27;84049;-64
2022/09/01 08:23:11;;;;;;;6.95;5.22;;;22.60;99.90;;;;;;6282147;27;82976;-64
2022/09/01 08:26:15;;;;;;;5.55;4.70;;;22.60;99.90;;;;;;6285228;27;82861;-64
2022/09/01 08:29:17;;;;;;;6.20;4.70;;;22.60;99.90;;;;;;6284757;27;82523;-64
2022/09/01 08:32:20;;;;;;;7.90;4.82;;;22.60;99.90;;;;;;6282507;27;84468;-64
2022/09/01 08:35:24;;;;;;;8.35;5.15;;;22.60;99.90;;;;;;6282524;27;84030;-64
2022/09/01 08:38:26;;;;;;;6.38;4.85;;;22.60;99.90;;;;;;6284063;27;84977;-64
2022/09/01 08:41:43;;;;;;;6.40;4.93;;;22.60;99.90;;;;;;6279223;27;83947;-64
2022/09/01 08:44:56;;;;;;;5.75;4.50;;;22.60;99.90;;;;;;6272389;27;82865;-64
2022/09/01 08:48:02;;;;;;;6.55;5.00;;;22.50;99.90;;;;;;6273399;27;84088;-64
2022/09/01 08:51:13;;;;;;;7.22;4.60;;;22.50;99.90;;;;;;6283700;27;84188;-64
2022/09/01 08:54:22;;;;;;;6.05;4.75;;;22.50;99.90;;;;;;6282674;27;83916;-63
2022/09/01 08:57:31;;;;;;;7.28;5.35;;;22.50;99.90;;;;;;6282855;27;84060;-63
2022/09/01 09:00:41;;;;;;;5.95;4.57;;;22.50;99.90;;;;;;6284239;27;83147;-63
2022/09/01 09:03:51;;;;;;;5.57;4.30;;;22.50;99.90;;;;;;6284607;27;84005;-63
2022/09/01 09:07:05;;;;;;;6.15;4.53;;;22.50;99.90;;;;;;6279167;27;84192;-63
2022/09/01 09:10:14;;;;;;;4.95;4.10;;;22.50;99.90;;;;;;6283453;27;84873;-63
2022/09/01 09:13:23;;;;;;;4.95;4.07;;;22.50;99.90;;;;;;6274968;27;84531;-63
2022/09/01 09:16:28;;;;;;;6.38;4.32;;;22.50;99.90;;;;;;6281087;27;83996;-63
2022/09/01 09:19:33;;;;;;;4.50;4.07;;;22.50;99.90;;;;;;6276152;27;83994;-63
2022/09/01 09:22:37;;;;;;;5.90;4.25;;;22.50;99.90;;;;;;6280789;27;84052;-63
2022/09/01 09:25:39;;;;;;;5.10;4.13;;;22.50;99.90;;;;;;6283594;27;83358;-63
2022/09/01 09:28:41;;;;;;;4.70;3.90;;;22.40;99.90;;;;;;6284545;27;84268;-63
2022/09/01 09:31:47;;;;;;;3.97;3.58;;;22.50;99.90;;;;;;6283790;27;83364;-63
2022/09/01 09:34:50;;;;;;;4.43;3.75;;;22.50;99.90;;;;;;6283592;27;83998;-63
2022/09/01 09:37:54;;;;;;;4.10;3.53;;;22.50;99.90;;;;;;6282787;27;83997;-63
2022/09/01 09:40:58;;;;;;;5.18;3.75;;;22.40;99.90;;;;;;6280808;27;84940;-63
2022/09/01 09:44:06;;;;;;;5.60;3.50;;;22.50;99.90;;;;;;6286913;27;84331;-63
2022/09/01 09:47:09;;;;;;;3.70;3.40;;;22.50;99.90;;;;;;6282448;27;84031;-63
2022/09/01 09:50:17;;;;;;;6.10;3.75;;;22.50;99.90;;;;;;6282867;27;84782;-62
2022/09/01 09:53:27;;;;;;;4.20;3.30;;;22.40;99.90;;;;;;6284556;27;83952;-62
2022/09/01 09:56:29;;;;;;;6.95;3.60;;;22.40;99.90;;;;;;6282511;27;83997;-62
2022/09/01 09:59:36;;;;;;;5.03;3.58;;;22.50;99.90;;;;;;6280046;27;84388;-63
2022/09/01 10:02:39;;;;;;;4.03;3.33;;;22.40;99.90;;;;;;6276727;27;83676;-63
2022/09/01 10:05:43;;;;;;;5.45;3.30;;;22.50;99.90;;;;;;6283996;27;84050;-63
2022/09/01 10:08:46;;;;;;;3.53;3.20;;;22.50;99.90;;;;;;6269830;27;83726;-63
2022/09/01 10:11:52;;;;;;;3.85;3.20;;;22.40;99.90;;;;;;6282258;27;84196;-63
2022/09/01 10:15:00;;;;;;;3.70;3.03;;;22.50;99.90;;;;;;6282904;27;85448;-63
2022/09/01 10:18:07;;;;;;;4.53;3.15;;;22.40;99.90;;;;;;6281954;27;84047;-63
2022/09/01 10:21:13;;;;;;;3.40;3.10;;;22.50;99.90;;;;;;6283650;27;84096;-63
2022/09/01 10:24:23;;;;;;;4.20;3.05;;;22.40;99.90;;;;;;6282635;27;84017;-63
2022/09/01 10:27:28;;;;;;;3.53;2.88;;;22.40;99.90;;;;;;6283079;27;84070;-63
2022/09/01 10:30:31;;;;;;;4.00;3.10;;;22.40;99.90;;;;;;6283497;27;84079;-63
2022/09/01 10:33:32;;;;;;;3.08;2.72;;;22.40;99.90;;;;;;6283381;27;83264;-63
2022/09/01 10:36:36;;;;;;;3.95;2.92;;;22.40;99.90;;;;;;6283683;27;83933;-62
2022/09/01 10:40:11;;;;;;;3.33;3.03;;;22.40;99.90;;;;;;6281995;27;85320;-62
2022/09/01 10:43:50;;;;;;;3.65;2.97;;;22.40;99.90;;;;;;6272574;27;85146;-63
2022/09/01 10:46:52;;;;;;;3.00;2.70;;;22.40;99.90;;;;;;6279545;27;83834;-63
2022/09/01 10:50:01;;;;;;;4.30;2.92;;;22.50;99.90;;;;;;6282922;27;83937;-63
2022/09/01 10:53:07;;;;;;;3.65;2.95;;;22.50;99.90;;;;;;6273372;27;82834;-63
2022/09/01 10:56:16;;;;;;;3.40;2.85;;;22.40;99.90;;;;;;6282497;27;82992;-63
2022/09/01 10:59:27;;;;;;;2.92;2.60;;;22.40;99.90;;;;;;6286851;27;82884;-63
2022/09/01 11:02:29;;;;;;;3.67;2.78;;;22.40;99.90;;;;;;6286789;27;83069;-63
2022/09/01 11:05:59;;;;;;;2.95;2.50;;;22.40;99.90;;;;;;6287973;27;83616;-63
2022/09/01 11:09:04;;;;;;;2.80;2.45;;;22.40;99.90;;;;;;6275505;27;83260;-63
2022/09/01 11:12:26;;;;;;;2.50;2.30;;;22.40;99.90;;;;;;6287484;27;82953;-63
2022/09/01 11:15:38;;;;;;;2.75;2.55;;;22.40;99.90;;;;;;6275142;27;83863;-63
2022/09/01 11:18:40;;;;;;;3.53;2.55;;;22.40;99.90;;;;;;6275496;27;83963;-63
2022/09/01 11:21:42;;;;;;;3.00;2.70;;;22.40;99.90;;;;;;6285639;27;87961;-63
2022/09/01 11:24:51;;;;;;;3.35;2.40;;;22.40;99.90;;;;;;6287138;27;84065;-63
2022/09/01 11:27:59;;;;;;;3.45;2.30;;;22.40;99.90;;;;;;6287092;27;84228;-63
2022/09/01 11:31:11;;;;;;;2.50;2.30;;;22.40;99.90;;;;;;6286706;27;83990;-63
2022/09/01 11:34:18;;;;;;;2.47;2.25;;;22.40;99.90;;;;;;6286155;27;84058;-63
2022/09/01 11:37:23;;;;;;;2.53;2.33;;;22.40;99.90;;;;;;6285840;27;83355;-63
2022/09/01 11:40:29;;;;;;;2.85;2.33;;;22.40;99.90;;;;;;6285614;27;81985;-63
2022/09/01 11:43:33;;;;;;;2.90;2.40;;;22.40;99.90;;;;;;6285979;27;82934;-63
2022/09/01 11:46:37;;;;;;;2.83;2.50;;;22.40;99.90;;;;;;6282609;27;84860;-63
2022/09/01 11:49:47;;;;;;;3.30;2.67;;;22.40;99.90;;;;;;6276431;27;84127;-63
2022/09/01 11:52:57;;;;;;;2.40;2.17;;;22.40;99.90;;;;;;6286512;27;83008;-63
2022/09/01 11:56:15;;;;;;;3.72;2.35;;;22.40;99.90;;;;;;6285925;27;82777;-63
2022/09/01 11:59:32;;;;;;;2.45;2.25;;;22.40;99.90;;;;;;6285783;27;83963;-63
2022/09/01 12:02:36;;;;;;;2.55;2.35;;;22.40;99.90;;;;;;6285469;27;84150;-63
2022/09/01 12:05:39;;;;;;;2.50;2.30;;;22.40;99.90;;;;;;6284872;27;84088;-63
2022/09/01 12:08:43;;;;;;;3.95;2.92;;;22.40;99.90;;;;;;6278681;27;83286;-63
2022/09/01 12:11:45;;;;;;;2.72;2.53;;;22.40;99.90;;;;;;6286917;27;83253;-63
2022/09/01 12:14:57;;;;;;;3.05;2.33;;;22.40;99.90;;;;;;6272304;27;84133;-63
2022/09/01 12:18:13;;;;;;;2.47;2.22;;;22.40;99.90;;;;;;6283964;27;84862;-63
2022/09/01 12:21:21;;;;;;;3.47;2.50;;;22.40;99.90;;;;;;6283508;27;83952;-63
2022/09/01 12:24:25;;;;;;;2.90;2.60;;;22.40;99.90;;;;;;6284267;27;83890;-63
2022/09/01 12:27:26;;;;;;;2.40;2.20;;;22.40;99.90;;;;;;6284656;27;82885;-63
2022/09/01 12:30:34;;;;;;;2.80;2.60;;;22.30;99.90;;;;;;6285410;27;83287;-63
2022/09/01 12:33:36;;;;;;;2.90;2.60;;;22.40;99.90;;;;;;6283903;27;82829;-63
2022/09/01 12:36:38;;;;;;;3.05;2.40;;;22.30;99.90;;;;;;6284369;27;84086;-63
2022/09/01 12:39:43;;;;;;;2.92;2.50;;;22.30;99.90;;;;;;6278022;27;83647;-63
2022/09/01 12:42:50;;;;;;;3.42;2.70;;;22.40;99.90;;;;;;6285008;27;83967;-63
2022/09/01 12:45:53;;;;;;;2.75;2.50;;;22.40;99.90;;;;;;6285620;27;84106;-63
2022/09/01 12:49:19;;;;;;;2.60;2.40;;;22.40;99.90;;;;;;6284491;27;85257;-63
2022/09/01 12:52:25;;;;;;;2.58;2.30;;;22.30;99.90;;;;;;6286097;27;82696;-63
2022/09/01 12:55:29;;;;;;;3.78;2.60;;;22.40;99.90;;;;;;6272983;27;83857;-63
2022/09/01 12:58:31;;;;;;;2.63;2.30;;;22.30;99.90;;;;;;6284472;27;84110;-63
2022/09/01 13:01:36;;;;;;;2.65;2.45;;;22.40;99.90;;;;;;6284868;27;83854;-63
2022/09/01 13:04:40;;;;;;;3.65;2.72;;;22.30;99.90;;;;;;6283659;27;82836;-63
2022/09/01 13:07:42;;;;;;;2.85;2.53;;;22.40;99.90;;;;;;6272942;27;84071;-63
2022/09/01 13:10:47;;;;;;;2.67;2.47;;;22.40;99.90;;;;;;6284511;27;83316;-63
2022/09/01 13:13:49;;;;;;;2.90;2.50;;;22.40;99.90;;;;;;6283844;27;84105;-63
2022/09/01 13:16:52;;;;;;;2.50;2.30;;;22.40;99.90;;;;;;6271368;27;84055;-63
2022/09/01 13:19:54;;;;;;;3.50;2.45;;;22.30;99.90;;;;;;6282686;27;85141;-63
2022/09/01 13:22:56;;;;;;;2.60;2.40;;;22.30;99.90;;;;;;6284344;27;82922;-63
2022/09/01 13:25:59;;;;;;;2.65;2.45;;;22.40;99.90;;;;;;6284782;27;83965;-63
2022/09/01 13:29:01;;;;;;;2.55;2.20;;;22.30;99.90;;;;;;6283727;27;83919;-63
2022/09/01 13:32:05;;;;;;;2.95;2.50;;;22.40;99.90;;;;;;6282028;27;84128;-63
2022/09/01 13:35:08;;;;;;;2.80;2.55;;;22.40;99.90;;;;;;6283227;27;82834;-63
2022/09/01 13:38:10;;;;;;;2.50;2.30;;;22.30;99.90;;;;;;6283735;27;82916;-63
2022/09/01 13:41:14;;;;;;;2.58;2.35;;;22.40;99.90;;;;;;6274014;27;83700;-63
2022/09/01 13:44:17;;;;;;;2.78;2.20;;;22.40;99.90;;;;;;6281268;27;84072;-63
2022/09/01 13:47:20;;;;;;;3.22;2.30;;;22.40;99.90;;;;;;6283990;27;84005;-63
2022/09/01 13:50:23;;;;;;;3.40;2.20;;;22.40;99.90;;;;;;6281706;27;85018;-63
2022/09/01 13:53:25;;;;;;;2.60;2.20;;;22.30;99.90;;;;;;6283851;27;84079;-63
2022/09/01 13:56:27;;;;;;;3.38;2.60;;;22.30;99.90;;;;;;6282978;27;84048;-63
2022/09/01 13:59:29;;;;;;;2.45;2.25;;;22.30;99.90;;;;;;6283829;27;83233;-63
2022/09/01 14:02:34;;;;;;;2.40;2.20;;;22.30;99.90;;;;;;6283215;27;84914;-63
2022/09/01 14:05:37;;;;;;;2.30;2.10;;;22.40;99.90;;;;;;6282189;27;84127;-63
2022/09/01 14:08:39;;;;;;;2.30;2.10;;;22.40;99.90;;;;;;6282853;27;84051;-63
2022/09/01 14:11:42;;;;;;;2.90;2.33;;;22.40;99.90;;;;;;6283898;27;83535;-63
2022/09/01 14:14:43;;;;;;;2.28;2.08;;;22.30;99.90;;;;;;6278956;27;82935;-63
2022/09/01 14:17:49;;;;;;;3.03;2.17;;;22.30;99.90;;;;;;6274357;27;84093;-63
2022/09/01 14:20:53;;;;;;;3.47;2.30;;;22.30;99.90;;;;;;6283619;27;83856;-63
2022/09/01 14:23:55;;;;;;;4.03;2.83;;;22.30;99.90;;;;;;6281004;27;84400;-63
2022/09/01 14:26:57;;;;;;;2.40;2.17;;;22.30;99.90;;;;;;6284649;27;84533;-63
2022/09/01 14:29:59;;;;;;;2.35;2.15;;;22.40;99.90;;;;;;6282429;27;84139;-63
2022/09/01 14:33:03;;;;;;;2.53;2.10;;;22.30;99.90;;;;;;6284655;27;84038;-63
2022/09/01 14:36:06;;;;;;;2.40;2.20;;;22.30;99.90;;;;;;6287211;27;84906;-63
2022/09/01 14:39:08;;;;;;;2.28;2.08;;;22.40;99.90;;;;;;6280885;27;84008;-63
2022/09/01 14:42:10;;;;;;;2.20;2.00;;;22.40;99.90;;;;;;6280978;27;83362;-63
2022/09/01 14:45:14;;;;;;;3.30;2.60;;;22.30;99.90;;;;;;6286040;27;84094;-63
2022/09/01 14:48:19;;;;;;;2.58;2.30;;;22.40;99.90;;;;;;6285752;27;84024;-63
2022/09/01 14:51:23;;;;;;;2.30;2.10;;;22.40;99.90;;;;;;6287013;27;84993;-64
2022/09/01 14:54:25;;;;;;;2.50;2.30;;;22.30;99.90;;;;;;6286985;27;84057;-63
2022/09/01 14:57:27;;;;;;;2.42;2.22;;;22.30;99.90;;;;;;6277951;27;82916;-63
2022/09/01 15:00:30;;;;;;;2.40;2.20;;;22.30;99.90;;;;;;6286915;27;84033;-63
2022/09/01 15:03:34;;;;;;;2.30;2.10;;;22.30;99.90;;;;;;6287120;27;83061;-63
2022/09/01 15:06:36;;;;;;;2.50;2.30;;;22.30;99.90;;;;;;6286674;27;84037;-63
2022/09/01 15:09:38;;;;;;;2.20;2.00;;;22.30;99.90;;;;;;6286351;27;83843;-63
2022/09/01 15:12:40;;;;;;;2.80;2.42;;;22.30;99.90;;;;;;6286832;27;83204;-63
2022/09/01 15:15:42;;;;;;;3.10;2.50;;;22.30;99.90;;;;;;6284248;27;84315;-63
2022/09/01 15:18:46;;;;;;;2.47;2.22;;;22.30;99.90;;;;;;6280427;27;84255;-63
2022/09/01 15:21:48;;;;;;;2.63;2.20;;;22.40;99.90;;;;;;6285270;27;85062;-63
2022/09/01 15:24:50;;;;;;;2.33;2.13;;;22.30;99.90;;;;;;6286585;27;83027;-63
2022/09/01 15:27:52;;;;;;;2.35;2.15;;;22.30;99.90;;;;;;6286014;27;83752;-63
2022/09/01 15:30:55;;;;;;;2.20;2.00;;;22.30;99.90;;;;;;6286921;27;82725;-63
2022/09/01 15:34:00;;;;;;;2.17;1.98;;;22.30;99.90;;;;;;6286016;27;84060;-63
2022/09/01 15:37:02;;;;;;;2.35;1.92;;;22.30;99.90;;;;;;6285721;27;83912;-63
2022/09/01 15:40:06;;;;;;;2.30;2.10;;;22.30;99.90;;;;;;6286042;27;83302;-63
2022/09/01 15:43:10;;;;;;;3.35;2.22;;;22.40;99.90;;;;;;6286633;27;83616;-63
2022/09/01 15:46:13;;;;;;;2.40;2.20;;;22.30;99.90;;;;;;6285298;27;84221;-63
2022/09/01 15:49:17;;;;;;;2.60;2.40;;;22.30;99.90;;;;;;6285355;27;84003;-63
2022/09/01 15:52:19;;;;;;;2.28;2.00;;;22.30;99.90;;;;;;6285600;27;84794;-63
2022/09/01 15:55:24;;;;;;;3.17;2.42;;;22.30;99.90;;;;;;6284830;27;85535;-63